sensor_id;sensor_type;location;lat;lon;timestamp;temperature;humidity
4354;DHT22;11018;51.258;6.806;2023-04-09T00:01:55;8.10;91.10
4354;DHT22;11018;51.258;6.806;2023-04-09T00:04:21;8.10;93.00
4354;DHT22;11018;51.258;6.806;2023-04-09T00:06:54;8.00;94.30
4354;DHT22;11018;51.258;6.806;2023-04-09T00:09:19;8.10;96.00
4354;DHT22;11018;51.258;6.806;2023-04-09T00:11:45;8.20;92.70
4354;DHT22;11018;51.258;6.806;2023-04-09T00:14:10;8.00;93.30
4354;DHT22;11018;51.258;6.806;2023-04-09T00:16:36;7.90;95.00
4354;DHT22;11018;51.258;6.806;2023-04-09T00:19:01;7.80;95.80
4354;DHT22;11018;51.258;6.806;2023-04-09T00:21:27;7.70;96.80
4354;DHT22;11018;51.258;6.806;2023-04-09T00:23:52;7.60;98.40
4354;DHT22;11018;51.258;6.806;2023-04-09T00:26:18;7.50;99.70
4354;DHT22;11018;51.258;6.806;2023-04-09T00:28:44;7.40;99.90
4354;DHT22;11018;51.258;6.806;2023-04-09T00:31:09;7.40;99.90
4354;DHT22;11018;51.258;6.806;2023-04-09T00:33:35;7.50;99.90
4354;DHT22;11018;51.258;6.806;2023-04-09T00:36:01;7.50;99.90
4354;DHT22;11018;51.258;6.806;2023-04-09T00:38:26;7.40;99.90
4354;DHT22;11018;51.258;6.806;2023-04-09T00:40:52;7.30;99.90
4354;DHT22;11018;51.258;6.806;2023-04-09T00:43:17;7.60;99.90
4354;DHT22;11018;51.258;6.806;2023-04-09T00:45:43;7.50;99.10
4354;DHT22;11018;51.258;6.806;2023-04-09T00:48:11;7.30;99.90
4354;DHT22;11018;51.258;6.806;2023-04-09T00:50:36;7.20;99.90
4354;DHT22;11018;51.258;6.806;2023-04-09T00:53:02;7.20;99.90
4354;DHT22;11018;51.258;6.806;2023-04-09T00:55:29;7.20;99.90
4354;DHT22;11018;51.258;6.806;2023-04-09T00:57:55;7.30;99.90
4354;DHT22;11018;51.258;6.806;2023-04-09T01:00:20;7.20;99.90
4354;DHT22;11018;51.258;6.806;2023-04-09T01:02:47;7.00;99.90
4354;DHT22;11018;51.258;6.806;2023-04-09T01:05:13;7.00;99.90
4354;DHT22;11018;51.258;6.806;2023-04-09T01:11:05;6.90;99.90
4354;DHT22;11018;51.258;6.806;2023-04-09T01:16:16;6.70;99.90
4354;DHT22;11018;51.258;6.806;2023-04-09T01:18:57;6.80;99.90
4354;DHT22;11018;51.258;6.806;2023-04-09T01:21:29;7.00;99.90
4354;DHT22;11018;51.258;6.806;2023-04-09T01:26:54;7.00;99.90
4354;DHT22;11018;51.258;6.806;2023-04-09T01:29:22;7.10;99.90
4354;DHT22;11018;51.258;6.806;2023-04-09T01:31:48;7.30;99.60
4354;DHT22;11018;51.258;6.806;2023-04-09T01:34:15;7.20;99.00
4354;DHT22;11018;51.258;6.806;2023-04-09T01:36:43;7.30;98.40
4354;DHT22;11018;51.258;6.806;2023-04-09T01:39:09;7.10;99.00
4354;DHT22;11018;51.258;6.806;2023-04-09T01:41:36;7.30;99.90
4354;DHT22;11018;51.258;6.806;2023-04-09T01:44:03;7.50;96.10
4354;DHT22;11018;51.258;6.806;2023-04-09T01:46:30;7.80;94.10
4354;DHT22;11018;51.258;6.806;2023-04-09T01:48:56;7.70;92.40
4354;DHT22;11018;51.258;6.806;2023-04-09T01:51:22;7.60;93.90
4354;DHT22;11018;51.258;6.806;2023-04-09T01:53:48;7.70;95.60
4354;DHT22;11018;51.258;6.806;2023-04-09T01:56:14;7.80;91.40
4354;DHT22;11018;51.258;6.806;2023-04-09T01:58:39;7.70;92.20
4354;DHT22;11018;51.258;6.806;2023-04-09T02:01:25;7.50;95.30
4354;DHT22;11018;51.258;6.806;2023-04-09T02:04:01;7.50;97.60
4354;DHT22;11018;51.258;6.806;2023-04-09T02:09:20;7.40;99.90
4354;DHT22;11018;51.258;6.806;2023-04-09T02:11:47;7.40;99.90
4354;DHT22;11018;51.258;6.806;2023-04-09T02:14:14;7.40;99.90
4354;DHT22;11018;51.258;6.806;2023-04-09T02:16:40;7.30;99.90
4354;DHT22;11018;51.258;6.806;2023-04-09T02:19:06;7.30;99.90
4354;DHT22;11018;51.258;6.806;2023-04-09T02:21:32;7.20;99.90
4354;DHT22;11018;51.258;6.806;2023-04-09T02:23:58;7.10;99.90
4354;DHT22;11018;51.258;6.806;2023-04-09T02:26:23;7.00;99.90
4354;DHT22;11018;51.258;6.806;2023-04-09T02:28:49;7.10;99.90
4354;DHT22;11018;51.258;6.806;2023-04-09T02:31:15;7.00;99.90
4354;DHT22;11018;51.258;6.806;2023-04-09T02:33:40;7.00;99.90
4354;DHT22;11018;51.258;6.806;2023-04-09T02:36:10;6.80;99.90
4354;DHT22;11018;51.258;6.806;2023-04-09T02:38:38;6.60;99.90
4354;DHT22;11018;51.258;6.806;2023-04-09T02:41:04;6.60;99.90
4354;DHT22;11018;51.258;6.806;2023-04-09T02:43:30;6.80;99.90
4354;DHT22;11018;51.258;6.806;2023-04-09T02:45:55;7.10;99.90
4354;DHT22;11018;51.258;6.806;2023-04-09T02:48:21;7.30;97.20
4354;DHT22;11018;51.258;6.806;2023-04-09T02:50:46;7.20;94.80
4354;DHT22;11018;51.258;6.806;2023-04-09T02:53:12;7.20;95.40
4354;DHT22;11018;51.258;6.806;2023-04-09T02:55:37;7.00;95.70
4354;DHT22;11018;51.258;6.806;2023-04-09T02:58:03;6.70;98.90
4354;DHT22;11018;51.258;6.806;2023-04-09T03:00:28;6.70;99.60
4354;DHT22;11018;51.258;6.806;2023-04-09T03:02:54;6.50;99.90
4354;DHT22;11018;51.258;6.806;2023-04-09T03:05:19;6.40;99.90
4354;DHT22;11018;51.258;6.806;2023-04-09T03:07:45;6.30;99.90
4354;DHT22;11018;51.258;6.806;2023-04-09T03:10:11;6.20;99.90
4354;DHT22;11018;51.258;6.806;2023-04-09T03:12:37;6.10;99.90
4354;DHT22;11018;51.258;6.806;2023-04-09T03:15:03;6.00;99.90
4354;DHT22;11018;51.258;6.806;2023-04-09T03:17:28;6.10;99.90
4354;DHT22;11018;51.258;6.806;2023-04-09T03:19:56;6.00;99.90
4354;DHT22;11018;51.258;6.806;2023-04-09T03:22:22;6.10;99.90
4354;DHT22;11018;51.258;6.806;2023-04-09T03:24:47;5.90;99.90
4354;DHT22;11018;51.258;6.806;2023-04-09T03:27:13;5.70;99.90
4354;DHT22;11018;51.258;6.806;2023-04-09T03:29:39;5.60;99.90
4354;DHT22;11018;51.258;6.806;2023-04-09T03:32:04;5.50;99.90
4354;DHT22;11018;51.258;6.806;2023-04-09T03:34:30;5.40;99.90
4354;DHT22;11018;51.258;6.806;2023-04-09T03:36:55;5.30;99.90
4354;DHT22;11018;51.258;6.806;2023-04-09T03:39:21;5.20;99.90
4354;DHT22;11018;51.258;6.806;2023-04-09T03:41:46;5.20;99.90
4354;DHT22;11018;51.258;6.806;2023-04-09T03:44:12;5.10;99.90
4354;DHT22;11018;51.258;6.806;2023-04-09T03:46:38;5.30;99.90
4354;DHT22;11018;51.258;6.806;2023-04-09T03:49:04;5.50;99.90
4354;DHT22;11018;51.258;6.806;2023-04-09T03:51:29;5.90;99.90
4354;DHT22;11018;51.258;6.806;2023-04-09T03:53:56;5.80;99.90
4354;DHT22;11018;51.258;6.806;2023-04-09T03:56:21;5.70;99.90
4354;DHT22;11018;51.258;6.806;2023-04-09T03:58:47;5.70;99.90
4354;DHT22;11018;51.258;6.806;2023-04-09T04:01:14;5.70;99.90
4354;DHT22;11018;51.258;6.806;2023-04-09T04:03:39;5.60;99.90
4354;DHT22;11018;51.258;6.806;2023-04-09T04:06:05;5.50;99.90
4354;DHT22;11018;51.258;6.806;2023-04-09T04:08:30;5.60;99.90
4354;DHT22;11018;51.258;6.806;2023-04-09T04:11:02;5.40;99.90
4354;DHT22;11018;51.258;6.806;2023-04-09T04:13:28;5.40;99.90
4354;DHT22;11018;51.258;6.806;2023-04-09T04:15:53;5.40;99.90
4354;DHT22;11018;51.258;6.806;2023-04-09T04:18:19;5.60;99.90
4354;DHT22;11018;51.258;6.806;2023-04-09T04:20:44;5.40;99.90
4354;DHT22;11018;51.258;6.806;2023-04-09T04:23:10;5.30;99.90
4354;DHT22;11018;51.258;6.806;2023-04-09T04:25:35;5.20;99.90
4354;DHT22;11018;51.258;6.806;2023-04-09T04:28:01;5.40;99.90
4354;DHT22;11018;51.258;6.806;2023-04-09T04:30:26;5.40;99.90
4354;DHT22;11018;51.258;6.806;2023-04-09T04:32:52;5.40;99.90
4354;DHT22;11018;51.258;6.806;2023-04-09T04:35:17;5.50;99.90
4354;DHT22;11018;51.258;6.806;2023-04-09T04:37:43;5.60;99.90
4354;DHT22;11018;51.258;6.806;2023-04-09T04:40:09;5.60;99.30
4354;DHT22;11018;51.258;6.806;2023-04-09T04:42:34;5.80;96.50
4354;DHT22;11018;51.258;6.806;2023-04-09T04:45:00;5.90;93.10
4354;DHT22;11018;51.258;6.806;2023-04-09T04:47:25;5.90;91.30
4354;DHT22;11018;51.258;6.806;2023-04-09T04:49:51;5.80;91.20
4354;DHT22;11018;51.258;6.806;2023-04-09T04:52:16;5.70;93.00
4354;DHT22;11018;51.258;6.806;2023-04-09T04:54:42;5.70;94.20
4354;DHT22;11018;51.258;6.806;2023-04-09T04:57:08;5.70;93.10
4354;DHT22;11018;51.258;6.806;2023-04-09T04:59:36;5.60;94.60
4354;DHT22;11018;51.258;6.806;2023-04-09T05:02:03;5.70;94.50
4354;DHT22;11018;51.258;6.806;2023-04-09T05:04:28;5.60;95.60
4354;DHT22;11018;51.258;6.806;2023-04-09T05:06:54;5.50;97.30
4354;DHT22;11018;51.258;6.806;2023-04-09T05:09:20;5.40;97.90
4354;DHT22;11018;51.258;6.806;2023-04-09T05:11:45;5.40;99.00
4354;DHT22;11018;51.258;6.806;2023-04-09T05:14:11;5.40;99.40
4354;DHT22;11018;51.258;6.806;2023-04-09T05:16:37;5.60;98.20
4354;DHT22;11018;51.258;6.806;2023-04-09T05:19:02;5.70;94.30
4354;DHT22;11018;51.258;6.806;2023-04-09T05:21:28;5.90;91.30
4354;DHT22;11018;51.258;6.806;2023-04-09T05:23:53;5.80;90.70
4354;DHT22;11018;51.258;6.806;2023-04-09T05:26:19;5.70;91.90
4354;DHT22;11018;51.258;6.806;2023-04-09T05:28:48;5.80;92.10
4354;DHT22;11018;51.258;6.806;2023-04-09T05:31:13;6.00;89.20
4354;DHT22;11018;51.258;6.806;2023-04-09T05:33:40;6.00;86.90
4354;DHT22;11018;51.258;6.806;2023-04-09T05:36:06;5.90;86.60
4354;DHT22;11018;51.258;6.806;2023-04-09T05:38:31;5.70;90.30
4354;DHT22;11018;51.258;6.806;2023-04-09T05:40:57;5.70;94.30
4354;DHT22;11018;51.258;6.806;2023-04-09T05:43:23;5.80;94.30
4354;DHT22;11018;51.258;6.806;2023-04-09T05:45:48;5.60;94.00
4354;DHT22;11018;51.258;6.806;2023-04-09T05:48:14;5.80;94.10
4354;DHT22;11018;51.258;6.806;2023-04-09T05:50:41;5.90;92.80
4354;DHT22;11018;51.258;6.806;2023-04-09T05:53:06;6.00;91.00
4354;DHT22;11018;51.258;6.806;2023-04-09T05:55:32;5.90;90.20
4354;DHT22;11018;51.258;6.806;2023-04-09T05:57:57;5.80;92.20
4354;DHT22;11018;51.258;6.806;2023-04-09T06:00:23;5.80;93.30
4354;DHT22;11018;51.258;6.806;2023-04-09T06:02:49;5.80;94.70
4354;DHT22;11018;51.258;6.806;2023-04-09T06:05:15;5.70;94.40
4354;DHT22;11018;51.258;6.806;2023-04-09T06:07:40;5.80;94.20
4354;DHT22;11018;51.258;6.806;2023-04-09T06:10:07;5.90;94.20
4354;DHT22;11018;51.258;6.806;2023-04-09T06:12:36;6.10;93.10
4354;DHT22;11018;51.258;6.806;2023-04-09T06:15:02;6.20;88.30
4354;DHT22;11018;51.258;6.806;2023-04-09T06:17:28;6.50;85.70
4354;DHT22;11018;51.258;6.806;2023-04-09T06:19:54;6.80;79.20
4354;DHT22;11018;51.258;6.806;2023-04-09T06:22:19;6.80;77.90
4354;DHT22;11018;51.258;6.806;2023-04-09T06:24:45;7.00;76.60
4354;DHT22;11018;51.258;6.806;2023-04-09T06:27:10;7.00;75.80
4354;DHT22;11018;51.258;6.806;2023-04-09T06:29:36;7.10;75.40
4354;DHT22;11018;51.258;6.806;2023-04-09T06:32:02;7.40;73.50
4354;DHT22;11018;51.258;6.806;2023-04-09T06:34:28;7.40;72.50
4354;DHT22;11018;51.258;6.806;2023-04-09T06:36:53;7.50;72.10
4354;DHT22;11018;51.258;6.806;2023-04-09T06:39:19;7.80;65.80
4354;DHT22;11018;51.258;6.806;2023-04-09T06:41:45;7.80;66.50
4354;DHT22;11018;51.258;6.806;2023-04-09T06:44:10;8.10;63.90
4354;DHT22;11018;51.258;6.806;2023-04-09T06:46:36;8.10;62.60
4354;DHT22;11018;51.258;6.806;2023-04-09T06:49:02;8.20;62.40
4354;DHT22;11018;51.258;6.806;2023-04-09T06:51:27;8.30;60.80
4354;DHT22;11018;51.258;6.806;2023-04-09T06:53:53;8.40;58.30
4354;DHT22;11018;51.258;6.806;2023-04-09T06:56:18;8.50;57.70
4354;DHT22;11018;51.258;6.806;2023-04-09T06:58:44;8.60;56.40
4354;DHT22;11018;51.258;6.806;2023-04-09T07:01:11;8.70;54.90
4354;DHT22;11018;51.258;6.806;2023-04-09T07:03:37;8.90;54.20
4354;DHT22;11018;51.258;6.806;2023-04-09T07:06:03;9.10;49.90
4354;DHT22;11018;51.258;6.806;2023-04-09T07:08:28;9.20;50.20
4354;DHT22;11018;51.258;6.806;2023-04-09T07:10:54;9.30;46.10
4354;DHT22;11018;51.258;6.806;2023-04-09T07:13:19;9.40;45.70
4354;DHT22;11018;51.258;6.806;2023-04-09T07:15:45;9.50;44.00
4354;DHT22;11018;51.258;6.806;2023-04-09T07:18:11;9.70;43.90
4354;DHT22;11018;51.258;6.806;2023-04-09T07:20:36;9.80;42.80
4354;DHT22;11018;51.258;6.806;2023-04-09T07:23:02;9.90;41.50
4354;DHT22;11018;51.258;6.806;2023-04-09T07:25:27;10.00;41.00
4354;DHT22;11018;51.258;6.806;2023-04-09T07:27:53;10.10;40.70
4354;DHT22;11018;51.258;6.806;2023-04-09T07:30:19;10.30;38.90
4354;DHT22;11018;51.258;6.806;2023-04-09T07:32:45;10.30;37.40
4354;DHT22;11018;51.258;6.806;2023-04-09T07:35:10;10.40;36.20
4354;DHT22;11018;51.258;6.806;2023-04-09T07:37:36;10.50;35.80
4354;DHT22;11018;51.258;6.806;2023-04-09T07:40:02;10.60;35.50
4354;DHT22;11018;51.258;6.806;2023-04-09T07:42:31;10.60;34.10
4354;DHT22;11018;51.258;6.806;2023-04-09T07:44:57;10.80;35.60
4354;DHT22;11018;51.258;6.806;2023-04-09T07:47:22;11.00;33.30
4354;DHT22;11018;51.258;6.806;2023-04-09T07:49:48;11.20;32.90
4354;DHT22;11018;51.258;6.806;2023-04-09T07:52:14;11.40;33.10
4354;DHT22;11018;51.258;6.806;2023-04-09T07:54:39;11.40;32.30
4354;DHT22;11018;51.258;6.806;2023-04-09T07:57:05;11.40;31.50
4354;DHT22;11018;51.258;6.806;2023-04-09T07:59:31;11.30;29.50
4354;DHT22;11018;51.258;6.806;2023-04-09T08:01:57;11.40;28.30
4354;DHT22;11018;51.258;6.806;2023-04-09T08:04:23;11.40;30.20
4354;DHT22;11018;51.258;6.806;2023-04-09T08:06:49;11.40;29.20
4354;DHT22;11018;51.258;6.806;2023-04-09T08:09:16;11.40;27.20
4354;DHT22;11018;51.258;6.806;2023-04-09T08:11:42;11.50;29.00
4354;DHT22;11018;51.258;6.806;2023-04-09T08:14:10;11.60;28.50
4354;DHT22;11018;51.258;6.806;2023-04-09T08:16:41;11.60;28.40
4354;DHT22;11018;51.258;6.806;2023-04-09T08:19:08;11.70;27.50
4354;DHT22;11018;51.258;6.806;2023-04-09T08:21:39;11.70;26.80
4354;DHT22;11018;51.258;6.806;2023-04-09T08:24:08;11.70;27.90
4354;DHT22;11018;51.258;6.806;2023-04-09T08:26:39;11.80;26.00
4354;DHT22;11018;51.258;6.806;2023-04-09T08:29:05;11.80;25.70
4354;DHT22;11018;51.258;6.806;2023-04-09T08:31:31;11.90;24.20
4354;DHT22;11018;51.258;6.806;2023-04-09T08:33:56;12.00;25.70
4354;DHT22;11018;51.258;6.806;2023-04-09T08:36:22;12.10;25.50
4354;DHT22;11018;51.258;6.806;2023-04-09T08:38:48;12.20;23.80
4354;DHT22;11018;51.258;6.806;2023-04-09T08:41:20;12.30;23.40
4354;DHT22;11018;51.258;6.806;2023-04-09T08:43:47;12.30;22.00
4354;DHT22;11018;51.258;6.806;2023-04-09T08:46:14;12.30;23.40
4354;DHT22;11018;51.258;6.806;2023-04-09T08:48:43;12.40;22.60
4354;DHT22;11018;51.258;6.806;2023-04-09T08:51:15;12.40;23.00
4354;DHT22;11018;51.258;6.806;2023-04-09T08:54:00;12.50;22.70
4354;DHT22;11018;51.258;6.806;2023-04-09T08:56:27;12.50;22.10
4354;DHT22;11018;51.258;6.806;2023-04-09T08:58:53;12.60;21.10
4354;DHT22;11018;51.258;6.806;2023-04-09T09:01:26;12.60;19.80
4354;DHT22;11018;51.258;6.806;2023-04-09T09:06:22;12.90;21.10
4354;DHT22;11018;51.258;6.806;2023-04-09T09:09:04;12.80;19.60
4354;DHT22;11018;51.258;6.806;2023-04-09T09:11:34;13.00;20.60
4354;DHT22;11018;51.258;6.806;2023-04-09T09:14:03;13.00;20.20
4354;DHT22;11018;51.258;6.806;2023-04-09T09:16:29;13.10;19.50
4354;DHT22;11018;51.258;6.806;2023-04-09T09:18:57;13.30;19.90
4354;DHT22;11018;51.258;6.806;2023-04-09T09:21:23;13.30;19.80
4354;DHT22;11018;51.258;6.806;2023-04-09T09:23:50;13.40;17.90
4354;DHT22;11018;51.258;6.806;2023-04-09T09:26:27;13.40;17.80
4354;DHT22;11018;51.258;6.806;2023-04-09T09:28:54;13.60;19.10
4354;DHT22;11018;51.258;6.806;2023-04-09T09:31:21;13.70;19.00
4354;DHT22;11018;51.258;6.806;2023-04-09T09:33:47;13.60;16.80
4354;DHT22;11018;51.258;6.806;2023-04-09T09:36:14;13.60;16.70
4354;DHT22;11018;51.258;6.806;2023-04-09T09:38:52;13.70;17.50
4354;DHT22;11018;51.258;6.806;2023-04-09T09:41:19;13.70;17.50
4354;DHT22;11018;51.258;6.806;2023-04-09T09:43:45;13.80;16.90
4354;DHT22;11018;51.258;6.806;2023-04-09T09:46:10;13.80;16.90
4354;DHT22;11018;51.258;6.806;2023-04-09T09:48:36;14.00;18.10
4354;DHT22;11018;51.258;6.806;2023-04-09T09:51:07;14.10;16.30
4354;DHT22;11018;51.258;6.806;2023-04-09T09:53:35;14.10;15.20
4354;DHT22;11018;51.258;6.806;2023-04-09T09:56:03;14.00;15.20
4354;DHT22;11018;51.258;6.806;2023-04-09T09:58:37;14.00;15.80
4354;DHT22;11018;51.258;6.806;2023-04-09T10:01:11;14.00;15.00
4354;DHT22;11018;51.258;6.806;2023-04-09T10:03:38;14.00;15.20
4354;DHT22;11018;51.258;6.806;2023-04-09T10:06:07;14.10;14.10
4354;DHT22;11018;51.258;6.806;2023-04-09T10:08:33;14.10;14.70
4354;DHT22;11018;51.258;6.806;2023-04-09T10:11:00;14.30;14.50
4354;DHT22;11018;51.258;6.806;2023-04-09T10:13:34;14.30;13.60
4354;DHT22;11018;51.258;6.806;2023-04-09T10:16:00;14.40;15.10
4354;DHT22;11018;51.258;6.806;2023-04-09T10:18:27;14.40;14.00
4354;DHT22;11018;51.258;6.806;2023-04-09T10:21:16;14.60;14.10
4354;DHT22;11018;51.258;6.806;2023-04-09T10:23:47;14.50;13.10
4354;DHT22;11018;51.258;6.806;2023-04-09T10:26:13;14.50;13.50
4354;DHT22;11018;51.258;6.806;2023-04-09T10:28:39;14.60;13.50
4354;DHT22;11018;51.258;6.806;2023-04-09T10:31:06;14.60;12.90
4354;DHT22;11018;51.258;6.806;2023-04-09T10:33:32;14.60;13.20
4354;DHT22;11018;51.258;6.806;2023-04-09T10:36:03;14.70;14.30
4354;DHT22;11018;51.258;6.806;2023-04-09T10:38:40;14.80;15.00
4354;DHT22;11018;51.258;6.806;2023-04-09T10:41:26;14.90;14.60
4354;DHT22;11018;51.258;6.806;2023-04-09T10:43:52;15.30;14.60
4354;DHT22;11018;51.258;6.806;2023-04-09T10:49:26;15.40;12.70
4354;DHT22;11018;51.258;6.806;2023-04-09T10:52:06;15.40;13.10
4354;DHT22;11018;51.258;6.806;2023-04-09T10:59:57;15.20;13.50
4354;DHT22;11018;51.258;6.806;2023-04-09T11:05:13;16.20;11.50
4354;DHT22;11018;51.258;6.806;2023-04-09T11:08:02;16.50;12.00
4354;DHT22;11018;51.258;6.806;2023-04-09T11:10:28;16.90;10.20
4354;DHT22;11018;51.258;6.806;2023-04-09T11:12:53;16.90;9.60
4354;DHT22;11018;51.258;6.806;2023-04-09T11:15:19;16.60;9.50
4354;DHT22;11018;51.258;6.806;2023-04-09T11:17:46;16.50;10.10
4354;DHT22;11018;51.258;6.806;2023-04-09T11:20:13;16.50;10.10
4354;DHT22;11018;51.258;6.806;2023-04-09T11:22:39;16.80;9.80
4354;DHT22;11018;51.258;6.806;2023-04-09T11:25:05;17.00;8.70
4354;DHT22;11018;51.258;6.806;2023-04-09T11:27:36;17.00;9.10
4354;DHT22;11018;51.258;6.806;2023-04-09T11:30:02;17.20;9.10
4354;DHT22;11018;51.258;6.806;2023-04-09T11:32:29;17.20;9.70
4354;DHT22;11018;51.258;6.806;2023-04-09T11:34:55;17.10;9.00
4354;DHT22;11018;51.258;6.806;2023-04-09T11:37:22;16.80;9.00
4354;DHT22;11018;51.258;6.806;2023-04-09T11:39:48;16.70;9.90
4354;DHT22;11018;51.258;6.806;2023-04-09T11:42:16;16.70;9.00
4354;DHT22;11018;51.258;6.806;2023-04-09T11:44:43;16.80;9.10
4354;DHT22;11018;51.258;6.806;2023-04-09T11:47:10;16.90;8.80
4354;DHT22;11018;51.258;6.806;2023-04-09T11:49:36;16.80;9.00
4354;DHT22;11018;51.258;6.806;2023-04-09T11:52:02;16.90;10.50
4354;DHT22;11018;51.258;6.806;2023-04-09T11:54:37;16.90;9.90
4354;DHT22;11018;51.258;6.806;2023-04-09T11:57:03;16.90;10.80
4354;DHT22;11018;51.258;6.806;2023-04-09T11:59:29;16.70;10.30
4354;DHT22;11018;51.258;6.806;2023-04-09T12:01:58;16.60;10.00
4354;DHT22;11018;51.258;6.806;2023-04-09T12:04:23;16.70;10.00
4354;DHT22;11018;51.258;6.806;2023-04-09T12:06:49;17.00;10.80
4354;DHT22;11018;51.258;6.806;2023-04-09T12:09:15;17.20;10.00
4354;DHT22;11018;51.258;6.806;2023-04-09T12:11:44;17.20;9.10
4354;DHT22;11018;51.258;6.806;2023-04-09T12:14:14;17.40;8.90
4354;DHT22;11018;51.258;6.806;2023-04-09T12:16:41;17.80;9.10
4354;DHT22;11018;51.258;6.806;2023-04-09T12:19:10;17.80;7.70
4354;DHT22;11018;51.258;6.806;2023-04-09T12:21:48;17.80;8.30
4354;DHT22;11018;51.258;6.806;2023-04-09T12:24:16;17.80;8.50
4354;DHT22;11018;51.258;6.806;2023-04-09T12:26:44;17.90;9.00
4354;DHT22;11018;51.258;6.806;2023-04-09T12:29:10;17.90;8.50
4354;DHT22;11018;51.258;6.806;2023-04-09T12:31:35;18.20;8.20
4354;DHT22;11018;51.258;6.806;2023-04-09T12:34:01;18.20;7.90
4354;DHT22;11018;51.258;6.806;2023-04-09T12:36:27;18.10;8.00
4354;DHT22;11018;51.258;6.806;2023-04-09T12:38:52;18.00;8.20
4354;DHT22;11018;51.258;6.806;2023-04-09T12:41:18;18.00;8.50
4354;DHT22;11018;51.258;6.806;2023-04-09T12:43:43;17.90;9.10
4354;DHT22;11018;51.258;6.806;2023-04-09T12:46:09;17.90;8.60
4354;DHT22;11018;51.258;6.806;2023-04-09T12:48:34;18.00;9.50
4354;DHT22;11018;51.258;6.806;2023-04-09T12:51:00;18.00;8.10
4354;DHT22;11018;51.258;6.806;2023-04-09T12:53:27;17.90;8.20
4354;DHT22;11018;51.258;6.806;2023-04-09T12:55:52;18.10;7.60
4354;DHT22;11018;51.258;6.806;2023-04-09T12:58:18;18.30;7.70
4354;DHT22;11018;51.258;6.806;2023-04-09T13:00:44;18.40;7.70
4354;DHT22;11018;51.258;6.806;2023-04-09T13:03:10;18.30;7.90
4354;DHT22;11018;51.258;6.806;2023-04-09T13:05:36;18.30;8.20
4354;DHT22;11018;51.258;6.806;2023-04-09T13:08:01;18.20;7.50
4354;DHT22;11018;51.258;6.806;2023-04-09T13:10:28;18.10;6.70
4354;DHT22;11018;51.258;6.806;2023-04-09T13:12:54;18.20;7.80
4354;DHT22;11018;51.258;6.806;2023-04-09T13:15:20;18.40;7.80
4354;DHT22;11018;51.258;6.806;2023-04-09T13:17:46;18.70;7.10
4354;DHT22;11018;51.258;6.806;2023-04-09T13:20:12;18.90;6.50
4354;DHT22;11018;51.258;6.806;2023-04-09T13:22:37;18.90;5.90
4354;DHT22;11018;51.258;6.806;2023-04-09T13:25:03;18.90;6.00
4354;DHT22;11018;51.258;6.806;2023-04-09T13:27:29;18.90;6.20
4354;DHT22;11018;51.258;6.806;2023-04-09T13:29:54;19.20;5.10
4354;DHT22;11018;51.258;6.806;2023-04-09T13:32:23;19.20;5.40
4354;DHT22;11018;51.258;6.806;2023-04-09T13:34:49;19.30;5.90
4354;DHT22;11018;51.258;6.806;2023-04-09T13:37:15;19.20;6.50
4354;DHT22;11018;51.258;6.806;2023-04-09T13:39:41;18.90;5.90
4354;DHT22;11018;51.258;6.806;2023-04-09T13:42:07;18.70;6.20
4354;DHT22;11018;51.258;6.806;2023-04-09T13:44:32;19.10;5.90
4354;DHT22;11018;51.258;6.806;2023-04-09T13:46:58;19.50;4.90
4354;DHT22;11018;51.258;6.806;2023-04-09T13:49:23;20.20;4.50
4354;DHT22;11018;51.258;6.806;2023-04-09T13:51:51;20.70;3.50
4354;DHT22;11018;51.258;6.806;2023-04-09T13:54:17;21.10;2.70
4354;DHT22;11018;51.258;6.806;2023-04-09T13:56:43;21.50;1.80
4354;DHT22;11018;51.258;6.806;2023-04-09T13:59:09;21.70;1.70
4354;DHT22;11018;51.258;6.806;2023-04-09T14:01:35;21.40;2.30
4354;DHT22;11018;51.258;6.806;2023-04-09T14:04:00;21.00;3.80
4354;DHT22;11018;51.258;6.806;2023-04-09T14:06:26;20.00;4.20
4354;DHT22;11018;51.258;6.806;2023-04-09T14:08:52;19.30;5.00
4354;DHT22;11018;51.258;6.806;2023-04-09T14:11:17;18.80;7.40
4354;DHT22;11018;51.258;6.806;2023-04-09T14:13:43;18.60;7.40
4354;DHT22;11018;51.258;6.806;2023-04-09T14:16:08;19.50;5.60
4354;DHT22;11018;51.258;6.806;2023-04-09T14:18:34;20.20;5.10
4354;DHT22;11018;51.258;6.806;2023-04-09T14:21:00;20.80;3.70
4354;DHT22;11018;51.258;6.806;2023-04-09T14:23:26;21.20;3.10
4354;DHT22;11018;51.258;6.806;2023-04-09T14:25:52;21.60;2.10
4354;DHT22;11018;51.258;6.806;2023-04-09T14:28:18;21.60;3.10
4354;DHT22;11018;51.258;6.806;2023-04-09T14:30:44;20.70;2.80
4354;DHT22;11018;51.258;6.806;2023-04-09T14:33:09;19.80;4.00
4354;DHT22;11018;51.258;6.806;2023-04-09T14:35:35;20.20;5.00
4354;DHT22;11018;51.258;6.806;2023-04-09T14:38:01;20.90;3.00
4354;DHT22;11018;51.258;6.806;2023-04-09T14:40:32;21.30;2.20
4354;DHT22;11018;51.258;6.806;2023-04-09T14:42:58;22.30;2.00
4354;DHT22;11018;51.258;6.806;2023-04-09T14:45:24;22.80;1.00
4354;DHT22;11018;51.258;6.806;2023-04-09T14:47:49;23.50;1.00
4354;DHT22;11018;51.258;6.806;2023-04-09T14:50:15;23.70;1.00
4354;DHT22;11018;51.258;6.806;2023-04-09T14:52:41;23.80;1.00
4354;DHT22;11018;51.258;6.806;2023-04-09T14:55:07;23.70;1.00
4354;DHT22;11018;51.258;6.806;2023-04-09T14:57:40;24.10;1.00
4354;DHT22;11018;51.258;6.806;2023-04-09T15:00:07;24.30;1.00
4354;DHT22;11018;51.258;6.806;2023-04-09T15:02:33;24.10;1.00
4354;DHT22;11018;51.258;6.806;2023-04-09T15:05:02;22.90;1.00
4354;DHT22;11018;51.258;6.806;2023-04-09T15:07:28;21.40;1.30
4354;DHT22;11018;51.258;6.806;2023-04-09T15:12:20;19.80;4.20
4354;DHT22;11018;51.258;6.806;2023-04-09T15:14:45;19.20;5.60
4354;DHT22;11018;51.258;6.806;2023-04-09T15:17:11;19.30;6.00
4354;DHT22;11018;51.258;6.806;2023-04-09T15:19:36;19.30;5.30
4354;DHT22;11018;51.258;6.806;2023-04-09T15:22:02;19.40;5.10
4354;DHT22;11018;51.258;6.806;2023-04-09T15:24:27;19.40;5.40
4354;DHT22;11018;51.258;6.806;2023-04-09T15:26:53;19.00;5.40
4354;DHT22;11018;51.258;6.806;2023-04-09T15:29:18;18.60;6.20
4354;DHT22;11018;51.258;6.806;2023-04-09T15:31:44;18.20;7.00
4354;DHT22;11018;51.258;6.806;2023-04-09T15:34:09;18.10;7.40
4354;DHT22;11018;51.258;6.806;2023-04-09T15:36:35;18.70;6.40
4354;DHT22;11018;51.258;6.806;2023-04-09T15:39:03;18.80;6.30
4354;DHT22;11018;51.258;6.806;2023-04-09T15:41:29;18.40;6.70
4354;DHT22;11018;51.258;6.806;2023-04-09T15:43:57;18.00;7.30
4354;DHT22;11018;51.258;6.806;2023-04-09T15:46:22;18.70;7.10
4354;DHT22;11018;51.258;6.806;2023-04-09T15:48:48;20.00;5.50
4354;DHT22;11018;51.258;6.806;2023-04-09T15:51:13;21.10;3.40
4354;DHT22;11018;51.258;6.806;2023-04-09T15:53:39;21.70;1.60
4354;DHT22;11018;51.258;6.806;2023-04-09T15:56:05;22.40;1.00
4354;DHT22;11018;51.258;6.806;2023-04-09T15:58:31;22.80;1.00
4354;DHT22;11018;51.258;6.806;2023-04-09T16:00:57;23.00;1.00
4354;DHT22;11018;51.258;6.806;2023-04-09T16:03:22;23.10;1.00
4354;DHT22;11018;51.258;6.806;2023-04-09T16:05:48;22.70;1.00
4354;DHT22;11018;51.258;6.806;2023-04-09T16:08:13;22.20;1.00
4354;DHT22;11018;51.258;6.806;2023-04-09T16:10:39;22.40;1.00
4354;DHT22;11018;51.258;6.806;2023-04-09T16:13:05;22.80;1.00
4354;DHT22;11018;51.258;6.806;2023-04-09T16:15:30;23.00;1.00
4354;DHT22;11018;51.258;6.806;2023-04-09T16:17:56;23.00;1.00
4354;DHT22;11018;51.258;6.806;2023-04-09T16:20:22;23.00;1.00
4354;DHT22;11018;51.258;6.806;2023-04-09T16:22:48;22.80;1.00